createdAt,value
2024-05-09T00:01:03.586Z,10.90
2024-05-09T00:03:33.758Z,10.80
2024-05-09T00:06:04.094Z,10.80
2024-05-09T00:08:37.136Z,10.60
2024-05-09T00:11:07.561Z,10.60
2024-05-09T00:13:37.799Z,10.60
2024-05-09T00:16:08.278Z,10.60
2024-05-09T00:18:38.664Z,10.60
2024-05-09T00:21:09.335Z,10.50
2024-05-09T00:23:42.376Z,10.60
2024-05-09T00:26:12.534Z,10.40
2024-05-09T00:28:42.957Z,10.50
2024-05-09T00:31:13.304Z,10.60
2024-05-09T00:33:43.224Z,10.50
2024-05-09T00:36:13.437Z,10.40
2024-05-09T00:38:47.441Z,10.30
2024-05-09T00:41:19.647Z,10.40
2024-05-09T00:43:49.902Z,10.40
2024-05-09T00:46:19.936Z,10.40
2024-05-09T00:48:50.081Z,10.20
2024-05-09T00:51:20.580Z,10.20
2024-05-09T00:53:53.190Z,10.20
2024-05-09T00:56:23.914Z,10.00
2024-05-09T00:58:54.619Z,10.10
2024-05-09T01:01:26.842Z,10.00
2024-05-09T01:03:57.312Z,10.10
2024-05-09T01:06:27.539Z,10.00
2024-05-09T01:09:00.321Z,10.00
2024-05-09T01:11:35.953Z,9.90
2024-05-09T01:14:06.194Z,9.90
2024-05-09T01:16:36.139Z,9.90
2024-05-09T01:19:07.514Z,9.70
2024-05-09T01:21:37.701Z,9.70
2024-05-09T01:24:11.211Z,9.70
2024-05-09T01:26:41.425Z,9.80
2024-05-09T01:29:11.638Z,9.70
2024-05-09T01:31:41.748Z,9.80
2024-05-09T01:34:11.995Z,9.70
2024-05-09T01:36:42.134Z,9.70
2024-05-09T01:39:14.926Z,9.70
2024-05-09T01:41:45.017Z,9.60
2024-05-09T01:44:14.854Z,9.60
2024-05-09T01:46:45.131Z,9.70
2024-05-09T01:49:15.464Z,9.60
2024-05-09T01:51:45.422Z,9.60
2024-05-09T01:54:17.879Z,9.60
2024-05-09T01:56:47.698Z,9.60
2024-05-09T01:59:17.850Z,9.50
2024-05-09T02:01:56.601Z,9.40
2024-05-09T02:04:27.807Z,9.40
2024-05-09T02:06:58.067Z,9.40
2024-05-09T02:09:30.846Z,9.40
2024-05-09T02:12:01.316Z,9.30
2024-05-09T02:14:31.376Z,9.40
2024-05-09T02:17:01.748Z,9.40
2024-05-09T02:19:32.087Z,9.20
2024-05-09T02:22:02.211Z,9.20
2024-05-09T02:24:35.008Z,9.20
2024-05-09T02:27:05.148Z,9.30
2024-05-09T02:29:35.497Z,9.20
2024-05-09T02:32:05.539Z,9.10
2024-05-09T02:34:34.044Z,9.20
2024-05-09T02:37:04.215Z,9.20
2024-05-09T02:39:34.566Z,9.20
2024-05-09T02:42:04.712Z,9.10
2024-05-09T02:44:31.986Z,8.90
2024-05-09T02:47:02.192Z,9.10
2024-05-09T02:49:29.570Z,9.10
2024-05-09T02:51:59.651Z,8.90
2024-05-09T02:54:26.920Z,9.00
2024-05-09T02:56:59.436Z,8.90
2024-05-09T02:59:26.722Z,8.80
2024-05-09T03:01:56.972Z,8.90
2024-05-09T03:04:24.275Z,8.90
2024-05-09T03:06:54.381Z,8.80
2024-05-09T03:09:23.973Z,8.90
2024-05-09T03:11:54.792Z,8.80
2024-05-09T03:14:25.280Z,8.70
2024-05-09T03:16:55.429Z,8.90
2024-05-09T03:19:22.838Z,8.80
2024-05-09T03:21:53.037Z,8.80
2024-05-09T03:24:20.286Z,8.80
2024-05-09T03:26:50.130Z,8.70
2024-05-09T03:29:17.431Z,8.60
2024-05-09T03:31:50.471Z,8.80
2024-05-09T03:34:17.734Z,8.60
2024-05-09T03:36:48.449Z,8.50
2024-05-09T03:39:18.587Z,8.50
2024-05-09T03:41:48.710Z,8.60
2024-05-09T03:44:18.621Z,8.50
2024-05-09T03:46:51.535Z,8.50
2024-05-09T03:49:19.290Z,8.50
2024-05-09T03:51:49.752Z,8.60
2024-05-09T03:54:16.971Z,8.60
2024-05-09T03:56:47.072Z,8.60
2024-05-09T03:59:14.301Z,8.50
2024-05-09T04:01:44.807Z,8.60
2024-05-09T04:04:14.965Z,8.70
2024-05-09T04:06:45.183Z,8.60
2024-05-09T04:09:12.483Z,8.50
2024-05-09T04:11:42.355Z,8.60
2024-05-09T04:14:09.663Z,8.60
2024-05-09T04:16:39.521Z,8.60
2024-05-09T04:19:06.818Z,8.70
2024-05-09T04:21:39.353Z,8.70
2024-05-09T04:24:06.572Z,8.70
2024-05-09T04:26:36.813Z,8.90
2024-05-09T04:29:04.104Z,8.90
2024-05-09T04:31:38.697Z,8.90
2024-05-09T04:34:06.167Z,8.90
2024-05-09T04:36:36.418Z,9.00
2024-05-09T04:39:06.285Z,9.00
2024-05-09T04:41:36.202Z,9.10
2024-05-09T04:44:03.588Z,9.10
2024-05-09T04:46:33.640Z,9.40
2024-05-09T04:49:01.084Z,9.40
2024-05-09T04:51:31.303Z,9.50
2024-05-09T04:53:58.507Z,9.40
2024-05-09T04:56:31.717Z,9.70
2024-05-09T04:58:59.131Z,9.70
2024-05-09T05:01:29.344Z,9.90
2024-05-09T05:03:57.154Z,10.00
2024-05-09T05:06:27.406Z,10.20
2024-05-09T05:08:54.734Z,10.30
2024-05-09T05:11:24.986Z,10.40
2024-05-09T05:13:55.167Z,10.50
2024-05-09T05:16:25.322Z,10.70
2024-05-09T05:18:52.591Z,10.80
2024-05-09T05:21:22.948Z,10.80
2024-05-09T05:23:50.224Z,11.00
2024-05-09T05:26:20.573Z,11.10
2024-05-09T05:28:48.006Z,11.20
2024-05-09T05:31:20.839Z,11.40
2024-05-09T05:33:48.974Z,11.40
2024-05-09T05:36:18.971Z,11.50
2024-05-09T05:38:49.285Z,11.90
2024-05-09T05:41:16.670Z,11.80
2024-05-09T05:43:46.813Z,12.00
2024-05-09T05:46:14.048Z,12.10
2024-05-09T05:48:46.908Z,12.30
2024-05-09T05:51:14.313Z,12.40
2024-05-09T05:53:44.615Z,12.50
2024-05-09T05:56:11.924Z,12.40
2024-05-09T05:58:43.195Z,12.60
2024-05-09T06:01:10.451Z,12.70
2024-05-09T06:03:40.451Z,12.90
2024-05-09T06:06:10.619Z,12.90
2024-05-09T06:08:40.524Z,13.10
2024-05-09T06:11:08.031Z,13.20
2024-05-09T06:13:37.896Z,13.30
2024-05-09T06:16:05.504Z,13.30
2024-05-09T06:18:35.616Z,13.40
2024-05-09T06:21:03.115Z,13.50
2024-05-09T06:23:35.928Z,13.60
2024-05-09T06:26:04.814Z,13.70
2024-05-09T06:28:34.910Z,13.80
2024-05-09T06:31:02.454Z,13.70
2024-05-09T06:33:32.810Z,13.70
2024-05-09T06:36:00.275Z,13.70
2024-05-09T06:38:30.248Z,13.80
2024-05-09T06:41:00.216Z,14.00
2024-05-09T06:43:30.020Z,14.10
2024-05-09T06:45:57.225Z,14.30
2024-05-09T06:48:27.269Z,14.50
2024-05-09T06:50:54.593Z,14.60
2024-05-09T06:53:25.182Z,14.70
2024-05-09T06:55:55.098Z,14.70
2024-05-09T06:58:24.967Z,15.00
2024-05-09T07:00:54.910Z,15.10
2024-05-09T07:03:22.264Z,15.20
2024-05-09T07:05:52.341Z,15.20
2024-05-09T07:08:19.757Z,15.00
2024-05-09T07:10:49.956Z,15.00
2024-05-09T07:13:17.748Z,15.00
2024-05-09T07:15:50.252Z,15.10
2024-05-09T07:18:19.942Z,15.10
2024-05-09T07:20:51.237Z,15.40
2024-05-09T07:23:18.865Z,15.40
2024-05-09T07:25:48.934Z,15.70
2024-05-09T07:28:16.746Z,15.60
2024-05-09T07:30:46.957Z,15.80
2024-05-09T07:33:21.548Z,16.00
2024-05-09T07:35:53.092Z,16.10
2024-05-09T07:38:20.551Z,16.30
2024-05-09T07:40:50.592Z,16.40
2024-05-09T07:43:17.839Z,16.40
2024-05-09T07:45:53.454Z,16.30
2024-05-09T07:53:39.933Z,16.60
2024-05-09T07:56:15.166Z,16.70
2024-05-09T07:58:43.397Z,16.80
2024-05-09T08:01:13.389Z,16.90
2024-05-09T08:03:43.480Z,16.80
2024-05-09T08:06:13.419Z,16.70
2024-05-09T08:08:40.692Z,16.60
2024-05-09T08:11:10.826Z,16.40
2024-05-09T08:13:38.141Z,16.50
2024-05-09T08:16:08.380Z,16.40
2024-05-09T08:18:35.890Z,16.50
2024-05-09T08:21:08.699Z,16.50
2024-05-09T08:23:36.396Z,17.00
2024-05-09T08:26:06.358Z,17.20
2024-05-09T08:28:33.581Z,17.40
2024-05-09T08:31:06.137Z,17.60
2024-05-09T08:33:34.297Z,17.50
2024-05-09T08:36:04.221Z,17.10
2024-05-09T08:38:34.079Z,17.30
2024-05-09T08:41:06.083Z,17.50
2024-05-09T08:43:33.329Z,17.80
2024-05-09T08:46:03.294Z,17.90
2024-05-09T08:48:31.773Z,18.00
2024-05-09T08:51:02.004Z,18.20
2024-05-09T08:53:29.288Z,18.20
2024-05-09T08:56:04.048Z,17.90
2024-05-09T08:58:32.479Z,18.00
2024-05-09T09:01:02.842Z,18.20
2024-05-09T09:03:30.746Z,18.10
2024-05-09T09:06:02.380Z,18.20
2024-05-09T09:08:29.610Z,18.20
2024-05-09T09:11:03.071Z,18.30
2024-05-09T09:13:30.274Z,18.00
2024-05-09T09:16:02.610Z,18.00
2024-05-09T09:18:30.491Z,18.10
2024-05-09T09:21:00.952Z,18.30
2024-05-09T09:23:29.851Z,18.30
2024-05-09T09:26:03.847Z,18.60
2024-05-09T09:28:31.380Z,18.80
2024-05-09T09:31:05.047Z,19.00
2024-05-09T09:33:33.084Z,18.40
2024-05-09T09:36:03.511Z,18.50
2024-05-09T09:38:31.412Z,18.40
2024-05-09T09:41:04.445Z,18.50
2024-05-09T09:43:32.180Z,18.70
2024-05-09T09:46:03.310Z,19.20
2024-05-09T09:48:31.285Z,19.50
2024-05-09T09:51:01.681Z,19.40
2024-05-09T09:53:29.219Z,19.60
2024-05-09T09:55:59.788Z,19.40
2024-05-09T09:58:30.330Z,19.60
2024-05-09T10:01:00.346Z,19.80
2024-05-09T10:03:27.988Z,20.10
2024-05-09T10:05:58.275Z,20.30
2024-05-09T10:08:25.660Z,20.30
2024-05-09T10:10:55.685Z,20.20
2024-05-09T10:13:32.971Z,20.20
2024-05-09T10:16:10.323Z,20.10
2024-05-09T10:18:37.834Z,19.70
2024-05-09T10:21:18.348Z,19.70
2024-05-09T10:23:56.657Z,19.70
2024-05-09T10:26:33.214Z,19.90
2024-05-09T10:29:03.123Z,20.40
2024-05-09T10:31:35.682Z,20.80
2024-05-09T10:34:03.393Z,20.80
2024-05-09T10:36:33.794Z,20.90
2024-05-09T10:39:01.016Z,21.20
2024-05-09T10:41:30.937Z,21.40
2024-05-09T10:43:58.123Z,21.80
2024-05-09T10:46:28.025Z,21.70
2024-05-09T10:48:58.843Z,21.80
2024-05-09T10:51:29.608Z,21.80
2024-05-09T10:53:59.015Z,21.50
2024-05-09T10:56:29.133Z,21.20
2024-05-09T10:58:56.347Z,21.30
2024-05-09T11:01:26.910Z,21.20
2024-05-09T11:03:54.345Z,20.80
2024-05-09T11:06:27.392Z,20.50
2024-05-09T11:08:54.644Z,20.60
2024-05-09T11:11:24.587Z,20.70
2024-05-09T11:13:51.811Z,20.40
2024-05-09T11:16:22.465Z,20.40
2024-05-09T11:18:54.262Z,20.40
2024-05-09T11:21:27.183Z,20.70
2024-05-09T11:23:54.718Z,21.10
2024-05-09T11:26:25.327Z,21.40
2024-05-09T11:28:52.675Z,21.30
2024-05-09T11:31:22.626Z,21.20
2024-05-09T11:33:50.125Z,21.10
2024-05-09T11:36:20.360Z,20.90
2024-05-09T11:38:50.262Z,21.00
2024-05-09T11:41:20.885Z,21.20
2024-05-09T11:43:48.118Z,21.10
2024-05-09T11:46:18.249Z,21.40
2024-05-09T11:48:45.569Z,21.30
2024-05-09T11:51:15.477Z,21.00
2024-05-09T11:53:42.720Z,21.30
2024-05-09T11:56:15.429Z,21.30
2024-05-09T11:58:42.671Z,21.60
2024-05-09T12:01:12.944Z,21.50
2024-05-09T12:03:40.311Z,21.60
2024-05-09T12:06:10.376Z,21.30
2024-05-09T12:08:37.668Z,20.90
2024-05-09T12:11:08.114Z,21.00
2024-05-09T12:13:38.030Z,20.80
2024-05-09T12:16:08.248Z,20.90
2024-05-09T12:18:35.537Z,20.70
2024-05-09T12:21:05.587Z,20.70
2024-05-09T12:23:32.776Z,20.70
2024-05-09T12:26:02.905Z,21.00
2024-05-09T12:28:30.227Z,21.20
2024-05-09T12:31:02.703Z,21.30
2024-05-09T12:33:30.179Z,21.60
2024-05-09T12:36:00.414Z,21.90
2024-05-09T12:38:27.672Z,22.30
2024-05-09T12:40:57.666Z,22.70
2024-05-09T12:43:25.082Z,23.00
2024-05-09T12:45:55.087Z,23.10
2024-05-09T12:48:25.168Z,23.40
2024-05-09T12:50:57.457Z,23.50
2024-05-09T12:53:26.415Z,22.90
2024-05-09T12:55:59.988Z,22.50
2024-05-09T12:58:29.639Z,22.00
2024-05-09T13:00:59.611Z,22.20
2024-05-09T13:03:29.704Z,22.20
2024-05-09T13:05:59.690Z,22.40
2024-05-09T13:08:27.051Z,22.10
2024-05-09T13:10:56.955Z,21.80
2024-05-09T13:13:24.313Z,21.80
2024-05-09T13:15:54.347Z,21.60
2024-05-09T13:18:21.603Z,21.60
2024-05-09T13:20:54.130Z,21.90
2024-05-09T13:23:21.317Z,22.50
2024-05-09T13:25:51.133Z,22.50
2024-05-09T13:28:18.393Z,22.60
2024-05-09T13:30:48.305Z,22.50
2024-05-09T13:33:15.786Z,22.40
2024-05-09T13:35:49.614Z,22.20
2024-05-09T13:38:21.669Z,22.20
2024-05-09T13:40:51.793Z,22.50
2024-05-09T13:43:20.026Z,22.70
2024-05-09T13:45:50.336Z,22.50
2024-05-09T13:48:17.891Z,22.60
2024-05-09T13:50:47.803Z,22.70
2024-05-09T13:53:15.087Z,22.80
2024-05-09T13:55:47.701Z,23.10
2024-05-09T13:58:15.122Z,23.30
2024-05-09T14:00:48.741Z,23.00
2024-05-09T14:03:18.913Z,22.80
2024-05-09T14:05:51.378Z,22.50
2024-05-09T14:08:21.817Z,22.20
2024-05-09T14:10:54.717Z,22.30
2024-05-09T14:13:22.058Z,22.20
2024-05-09T14:15:52.320Z,22.40
2024-05-09T14:18:19.788Z,22.20
2024-05-09T14:20:49.653Z,22.20
2024-05-09T14:23:17.860Z,22.10
2024-05-09T14:25:51.820Z,22.00
2024-05-09T14:28:22.891Z,21.80
2024-05-09T14:30:53.211Z,21.90
2024-05-09T14:33:26.213Z,21.90
2024-05-09T14:35:56.335Z,22.00
2024-05-09T14:38:23.648Z,22.00
2024-05-09T14:40:53.618Z,22.40
2024-05-09T14:43:23.585Z,22.10
2024-05-09T14:45:53.582Z,22.50
2024-05-09T14:48:21.142Z,22.80
2024-05-09T14:50:51.461Z,22.60
2024-05-09T14:53:18.673Z,22.90
2024-05-09T14:55:49.665Z,22.80
2024-05-09T14:58:17.300Z,22.00
2024-05-09T15:00:51.373Z,22.20
2024-05-09T15:05:59.697Z,22.30
2024-05-09T15:08:26.958Z,22.00
2024-05-09T15:10:57.138Z,22.00
2024-05-09T15:13:24.891Z,21.80
2024-05-09T15:15:57.580Z,21.80
2024-05-09T15:18:24.900Z,21.60
2024-05-09T15:20:55.188Z,21.90
2024-05-09T15:23:22.493Z,21.90
2024-05-09T15:25:52.362Z,21.90
2024-05-09T15:28:22.268Z,21.70
2024-05-09T15:30:49.607Z,21.40
2024-05-09T15:33:22.131Z,21.30
2024-05-09T15:35:51.401Z,21.40
2024-05-09T15:38:21.373Z,21.50
2024-05-09T15:40:48.842Z,21.60
2024-05-09T15:43:18.766Z,21.40
2024-05-09T15:45:46.051Z,21.10
2024-05-09T15:48:16.100Z,20.80
2024-05-09T15:50:48.304Z,20.90
2024-05-09T15:53:18.819Z,20.90
2024-05-09T15:55:46.100Z,21.00
2024-05-09T15:58:16.196Z,21.10
2024-05-09T16:00:45.086Z,21.10
2024-05-09T16:03:16.701Z,21.70
2024-05-09T16:05:47.783Z,22.00
2024-05-09T16:08:18.472Z,21.70
2024-05-09T16:10:47.234Z,22.20
2024-05-09T16:13:30.946Z,22.70
2024-05-09T16:16:01.394Z,23.40
2024-05-09T16:18:31.312Z,23.70
2024-05-09T16:21:01.766Z,24.20
2024-05-09T16:23:32.080Z,24.20
2024-05-09T16:25:59.257Z,23.60
2024-05-09T16:28:29.167Z,23.80
2024-05-09T16:30:56.650Z,23.60
2024-05-09T16:33:26.939Z,23.60
2024-05-09T16:35:54.166Z,23.70
2024-05-09T16:38:26.682Z,24.40
2024-05-09T16:40:53.976Z,24.80
2024-05-09T16:43:24.211Z,25.00
2024-05-09T16:45:51.634Z,25.20
2024-05-09T16:48:22.379Z,24.80
2024-05-09T16:50:49.650Z,25.10
2024-05-09T16:53:19.503Z,24.80
2024-05-09T16:55:49.783Z,24.60
2024-05-09T16:58:19.881Z,24.50
2024-05-09T17:00:47.263Z,24.40
2024-05-09T17:03:17.502Z,24.30
2024-05-09T17:05:46.781Z,23.80
2024-05-09T17:08:18.274Z,23.40
2024-05-09T17:10:46.178Z,23.30
2024-05-09T17:13:19.698Z,22.90
2024-05-09T17:15:54.102Z,22.40
2024-05-09T17:18:24.704Z,21.70
2024-05-09T17:20:54.843Z,21.30
2024-05-09T17:23:22.200Z,20.70
2024-05-09T17:25:52.062Z,20.40
2024-05-09T17:28:22.066Z,20.20
2024-05-09T17:30:52.034Z,20.00
2024-05-09T17:33:19.489Z,19.90
2024-05-09T17:35:50.382Z,19.80
2024-05-09T17:38:17.864Z,19.60
2024-05-09T17:40:47.791Z,19.60
2024-05-09T17:43:15.229Z,19.70
2024-05-09T17:45:48.009Z,19.80
2024-05-09T17:48:15.405Z,20.30
2024-05-09T17:50:45.398Z,20.80
2024-05-09T17:53:12.614Z,21.20
2024-05-09T17:55:45.657Z,21.30
2024-05-09T17:58:13.109Z,21.40
2024-05-09T18:00:44.746Z,21.20
2024-05-09T18:03:16.964Z,21.10
2024-05-09T18:05:46.932Z,20.40
2024-05-09T18:08:14.419Z,19.90
2024-05-09T18:10:44.633Z,19.60
2024-05-09T18:13:12.650Z,19.20
2024-05-09T18:15:42.919Z,18.80
2024-05-09T18:18:10.636Z,18.60
2024-05-09T18:20:45.811Z,18.40
2024-05-09T18:23:16.099Z,18.20
2024-05-09T18:25:48.111Z,18.10
2024-05-09T18:28:16.127Z,17.90
2024-05-09T18:30:46.768Z,17.80
2024-05-09T18:33:14.303Z,17.60
2024-05-09T18:35:47.079Z,17.50
2024-05-09T18:38:14.300Z,17.40
2024-05-09T18:40:47.170Z,17.30
2024-05-09T18:43:16.406Z,17.20
2024-05-09T18:45:47.769Z,17.00
2024-05-09T18:48:15.742Z,16.90
2024-05-09T18:50:48.265Z,16.70
2024-05-09T18:53:16.078Z,16.60
2024-05-09T18:55:46.269Z,16.50
2024-05-09T18:58:16.638Z,16.40
2024-05-09T19:00:49.812Z,16.30
2024-05-09T19:03:18.679Z,16.00
2024-05-09T19:08:32.409Z,15.90
2024-05-09T19:11:02.384Z,15.80
2024-05-09T19:13:30.020Z,15.70
2024-05-09T19:15:59.972Z,15.70
2024-05-09T19:18:27.324Z,15.50
2024-05-09T19:20:59.912Z,15.50
2024-05-09T19:23:27.146Z,15.40
2024-05-09T19:25:56.969Z,15.30
2024-05-09T19:28:24.369Z,15.20
2024-05-09T19:30:54.480Z,15.20
2024-05-09T19:33:21.731Z,15.10
2024-05-09T19:35:53.950Z,15.10
2024-05-09T19:38:23.922Z,15.00
2024-05-09T19:40:54.118Z,14.90
2024-05-09T19:43:21.555Z,14.80
2024-05-09T19:45:54.467Z,14.70
2024-05-09T19:48:21.760Z,14.60
2024-05-09T19:50:53.221Z,14.60
2024-05-09T19:53:20.776Z,14.50
2024-05-09T19:55:53.486Z,14.40
2024-05-09T19:58:20.912Z,14.40
2024-05-09T20:00:51.305Z,14.30
2024-05-09T20:03:18.770Z,14.30
2024-05-09T20:05:48.946Z,14.10
2024-05-09T20:08:16.503Z,14.10
2024-05-09T20:10:46.849Z,14.00
2024-05-09T20:13:17.519Z,14.00
2024-05-09T20:15:47.447Z,13.90
2024-05-09T20:18:17.145Z,13.80
2024-05-09T20:20:48.949Z,13.70
2024-05-09T20:23:17.923Z,13.70
2024-05-09T20:25:47.782Z,13.70
2024-05-09T20:28:17.690Z,13.70
2024-05-09T20:30:47.616Z,13.50
2024-05-09T20:33:14.891Z,13.50
2024-05-09T20:35:44.998Z,13.50
2024-05-09T20:38:12.184Z,13.40
2024-05-09T20:51:54.287Z,13.30
2024-05-09T21:00:59.827Z,13.20
2024-05-09T21:05:58.344Z,13.20
2024-05-09T21:08:28.160Z,13.20
2024-05-09T21:10:58.984Z,13.20
2024-05-09T21:13:26.313Z,13.30
2024-05-09T21:15:56.304Z,13.30
2024-05-09T21:18:23.537Z,13.20
2024-05-09T21:20:53.675Z,13.20
2024-05-09T21:23:20.922Z,13.20
2024-05-09T21:25:53.706Z,13.10
2024-05-09T21:28:21.009Z,13.10
2024-05-09T21:30:50.885Z,13.10
2024-05-09T21:33:19.166Z,13.10
2024-05-09T21:35:49.378Z,13.00
2024-05-09T21:38:16.594Z,13.00
2024-05-09T21:40:46.794Z,13.00
2024-05-09T21:43:16.676Z,12.90
2024-05-09T21:45:46.539Z,13.00
2024-05-09T21:48:14.107Z,12.90
2024-05-09T21:50:44.393Z,12.90
2024-05-09T21:53:12.419Z,13.00
2024-05-09T21:55:43.354Z,13.00
2024-05-09T21:58:10.826Z,13.00
2024-05-09T22:00:45.584Z,13.10
2024-05-09T22:03:13.108Z,13.10
2024-05-09T22:05:44.849Z,13.20
2024-05-09T22:08:12.529Z,13.30
2024-05-09T22:10:42.446Z,13.30
2024-05-09T22:13:10.000Z,13.40
2024-05-09T22:15:41.065Z,13.50
2024-05-09T22:18:11.760Z,13.40
2024-05-09T22:20:45.648Z,13.50
2024-05-09T22:23:14.198Z,13.50
2024-05-09T22:25:44.231Z,13.50
2024-05-09T22:28:12.877Z,13.50
2024-05-09T22:30:43.896Z,13.50
2024-05-09T22:33:13.968Z,13.40
2024-05-09T22:35:43.842Z,13.40
2024-05-09T22:38:11.082Z,13.30
2024-05-09T22:40:47.415Z,13.30
2024-05-09T22:43:17.427Z,13.30
2024-05-09T22:45:47.660Z,13.20
2024-05-09T22:48:17.970Z,13.20
2024-05-09T22:50:47.895Z,13.30
2024-05-09T22:53:15.243Z,13.30
2024-05-09T22:55:45.167Z,13.30
2024-05-09T22:58:12.592Z,13.30
2024-05-09T23:00:42.840Z,13.30
2024-05-09T23:03:10.261Z,13.40
2024-05-09T23:05:42.758Z,13.30
2024-05-09T23:08:10.416Z,13.40
2024-05-09T23:10:40.294Z,13.40
2024-05-09T23:13:08.170Z,13.40
2024-05-09T23:15:39.378Z,13.40
2024-05-09T23:18:07.125Z,13.40
2024-05-09T23:20:39.458Z,13.30
2024-05-09T23:23:11.532Z,13.30
2024-05-09T23:25:42.338Z,13.30
2024-05-09T23:28:09.829Z,13.30
2024-05-09T23:30:41.164Z,13.20
2024-05-09T23:33:10.259Z,13.30
2024-05-09T23:35:40.691Z,13.20
2024-05-09T23:38:10.577Z,13.10
2024-05-09T23:40:41.714Z,13.20
2024-05-09T23:43:10.754Z,13.10
2024-05-09T23:45:41.667Z,13.10
2024-05-09T23:48:09.394Z,13.00
2024-05-09T23:50:40.497Z,13.00
2024-05-09T23:53:11.368Z,13.00
2024-05-09T23:55:41.668Z,12.80
2024-05-09T23:58:09.248Z,12.70
